Aviation Digital Data Service (ADDS)

Output produced by METARs form (1127 UTC 18 June 2019)
found at http://www.aviationweather.gov/metar/data/
 
Forecast for: UMMS (MINSK , BY)
Text: TAF UMMS 181103Z 1812/1912 34005G10MPS 9999 SCT020
Forecast period: 1200 to 1600 UTC 18 June 2019
Forecast type: FROM: standard forecast or significant change
Winds: from the NNW (340 degrees) at 12 MPH (10 knots; 5.1 m/s)
gusting to 22 MPH (19 knots; 9.8 m/s)
Visibility: 6 or more miles 10+ km)
Ceiling: at least 12,000 feet AGL
Clouds: scattered clouds at 2000 feet AGL
Weather: no significant weather forecast for this period
Text: BECMG 1816/1818 36003MPS
Forecast period: 1600 UTC 18 June 2019 to 1200 UTC 19 June 2019
Forecast type: BECOMING: Conditions expected to become as follows by 1800 UTC 18 June 2019
Winds: from the N (360 degrees) at 7 MPH (6 knots; 3.1 m/s)
Visibility: 6 or more miles 10+ km)
Ceiling: at least 12,000 feet AGL
Clouds: scattered clouds at 2000 feet AGL
Weather: no significant weather forecast for this period
Text: TEMPO 1823/1904 2000 BR SCT003
Forecast period: 2300 UTC 18 June 2019 to 0400 UTC 19 June 2019
Forecast type: TEMPORARY: The following changes expected for less than half the time period
Visibility: 1.24 miles (2.00 km)
Ceiling: at least 12,000 feet AGL
Clouds: scattered clouds at 300 feet AGL
Weather: BR  (mist)